METAR Formatted Surface Weather Observation
Issued by NWS

Home | Current Version | Previous Version | Text Only | Print | Product List | Glossary On
Versions: 1 2 3 4 5 6 7 8 9 10 11 12 13 14 15 16 17 18
000
SAUS46 KLOX 221709
MTRNID
SPECI KNID 221707Z 16004KT 5SM BR CLR 04/04 A3016 RMK AO2 T00440039
$



USA.gov is the U.S. government's official web portal to all federal, state and local government web resources and services.